Time;durP1;ratioP1;P1;durP2;ratioP2;P2;SDS_P1;SDS_P2;PMS_P1;PMS_P2;Temp;Humidity;BMP_temperature;BMP_pressure;BME280_temperature;BME280_humidity;BME280_pressure;Samples;Min_cycle;Max_cycle;Signal;HPM_P1;HPM_P2
2020/12/18 00:02:24;;;;;;;22.02;3.28;;;7.30;99.90;;;;;;4966589;28;20593;-63
2020/12/18 00:04:50;;;;;;;25.65;3.83;;;7.40;99.90;;;;;;4963905;28;20391;-62
2020/12/18 00:07:16;;;;;;;22.33;3.95;;;7.40;99.90;;;;;;4967251;28;20065;-63
2020/12/18 00:09:42;;;;;;;13.80;3.30;;;7.50;99.90;;;;;;4966831;28;20509;-63
2020/12/18 00:12:09;;;;;;;32.00;5.65;;;7.40;99.90;;;;;;4968434;28;20042;-62
2020/12/18 00:14:35;;;;;;;21.17;3.60;;;7.40;99.90;;;;;;4968365;28;20026;-63
2020/12/18 00:17:01;;;;;;;19.65;4.50;;;7.40;99.90;;;;;;4966618;28;20564;-63
2020/12/18 00:19:26;;;;;;;17.63;2.88;;;7.40;99.90;;;;;;4967765;28;20035;-63
2020/12/18 00:21:59;;;;;;;25.52;4.32;;;7.40;99.90;;;;;;4967476;28;20035;-62
2020/12/18 00:24:25;;;;;;;30.73;4.25;;;7.40;99.90;;;;;;4969163;28;20037;-63
2020/12/18 00:26:52;;;;;;;21.45;3.80;;;7.40;99.90;;;;;;4965634;28;20030;-63
2020/12/18 00:29:17;;;;;;;25.27;3.97;;;7.40;99.90;;;;;;4965210;28;21149;-63
2020/12/18 00:31:43;;;;;;;26.00;3.65;;;7.40;99.90;;;;;;4967768;28;20678;-63
2020/12/18 00:34:09;;;;;;;21.33;3.10;;;7.40;99.90;;;;;;4968107;28;20334;-63
2020/12/18 00:36:35;;;;;;;23.45;3.97;;;7.50;99.90;;;;;;4967632;28;20137;-62
2020/12/18 00:39:05;;;;;;;28.45;5.43;;;7.50;99.90;;;;;;4967209;28;20062;-63
2020/12/18 00:41:31;;;;;;;23.52;3.10;;;7.50;99.90;;;;;;4966276;28;20501;-63
2020/12/18 00:43:58;;;;;;;26.15;3.78;;;7.60;99.90;;;;;;4966531;28;20130;-63
2020/12/18 00:46:24;;;;;;;29.95;3.97;;;7.60;99.90;;;;;;4980666;28;20553;-63
2020/12/18 00:48:50;;;;;;;23.98;3.67;;;7.70;99.90;;;;;;4967667;28;20058;-63
2020/12/18 00:51:17;;;;;;;14.18;3.20;;;7.70;99.90;;;;;;4966721;28;20027;-63
2020/12/18 00:53:42;;;;;;;33.35;5.15;;;7.70;99.90;;;;;;4964106;28;20027;-62
2020/12/18 00:56:09;;;;;;;25.70;3.88;;;7.80;99.90;;;;;;4967801;28;20112;-63
2020/12/18 00:58:36;;;;;;;13.77;3.53;;;7.70;99.90;;;;;;4964214;28;20132;-63
2020/12/18 01:01:03;;;;;;;35.67;4.38;;;7.80;99.90;;;;;;4967502;28;20408;-63
2020/12/18 01:03:29;;;;;;;30.63;5.13;;;7.80;99.90;;;;;;4961563;28;20364;-63
2020/12/18 01:05:55;;;;;;;25.63;4.90;;;7.80;99.90;;;;;;4967966;28;20035;-63
2020/12/18 01:08:21;;;;;;;20.27;3.38;;;7.80;99.90;;;;;;4966744;28;20574;-63
2020/12/18 01:10:47;;;;;;;21.35;3.20;;;7.80;99.90;;;;;;4965230;28;20352;-63
2020/12/18 01:13:13;;;;;;;22.25;3.00;;;7.80;99.90;;;;;;4963061;28;20436;-63
2020/12/18 01:15:39;;;;;;;14.98;2.90;;;7.80;99.90;;;;;;4969274;28;20112;-63
2020/12/18 01:18:05;;;;;;;19.55;3.10;;;7.80;99.90;;;;;;4964297;28;20552;-63
2020/12/18 01:20:31;;;;;;;23.60;3.55;;;7.80;99.90;;;;;;4966645;28;20407;-63
2020/12/18 01:22:56;;;;;;;21.38;3.63;;;7.80;99.90;;;;;;4966349;28;20037;-63
2020/12/18 01:25:22;;;;;;;30.00;4.65;;;7.80;99.90;;;;;;4967111;28;20030;-63
2020/12/18 01:27:48;;;;;;;24.95;3.42;;;7.80;99.90;;;;;;4966723;28;20043;-63
2020/12/18 01:30:14;;;;;;;21.05;2.95;;;7.80;99.90;;;;;;4968522;28;20030;-63
2020/12/18 01:32:40;;;;;;;23.30;3.40;;;7.80;99.90;;;;;;4963607;28;20038;-63
2020/12/18 01:35:05;;;;;;;17.13;3.35;;;7.80;99.90;;;;;;4962466;28;20715;-63
2020/12/18 01:37:31;;;;;;;21.65;4.85;;;7.80;99.90;;;;;;4966710;28;20046;-63
2020/12/18 01:39:57;;;;;;;21.90;4.28;;;7.80;99.90;;;;;;4965874;28;20037;-63
2020/12/18 01:42:23;;;;;;;22.60;3.70;;;7.80;99.90;;;;;;4966569;28;20315;-63
2020/12/18 01:44:49;;;;;;;22.25;4.22;;;7.80;99.90;;;;;;4963853;28;20493;-63
2020/12/18 01:47:27;;;;;;;16.77;3.63;;;7.80;99.90;;;;;;4968496;28;20101;-63
2020/12/18 01:49:53;;;;;;;25.50;4.18;;;7.80;99.90;;;;;;4966091;28;20038;-62
2020/12/18 01:52:19;;;;;;;37.22;4.32;;;7.80;99.90;;;;;;4966498;28;20109;-63
2020/12/18 01:54:45;;;;;;;19.92;3.47;;;7.80;99.90;;;;;;4966229;28;20034;-63
2020/12/18 01:57:12;;;;;;;17.30;3.33;;;7.80;99.90;;;;;;4965053;28;20073;-63
2020/12/18 01:59:38;;;;;;;24.48;3.97;;;7.80;99.90;;;;;;4965919;28;20062;-63
2020/12/18 02:02:04;;;;;;;23.00;4.05;;;7.80;99.90;;;;;;4966842;28;20050;-63
2020/12/18 02:04:30;;;;;;;19.17;4.18;;;7.80;99.90;;;;;;4964522;28;20451;-63
2020/12/18 02:07:00;;;;;;;27.23;4.75;;;7.80;99.90;;;;;;4967196;28;20118;-62
2020/12/18 02:09:25;;;;;;;;;;;7.80;99.90;;;;;;4967096;28;20773;-63
2020/12/18 02:11:53;;;;;;;20.00;4.50;;;7.80;99.90;;;;;;4965789;28;19956;-63
2020/12/18 02:14:19;;;;;;;26.35;3.45;;;7.80;99.90;;;;;;4961736;28;20428;-63
2020/12/18 02:16:45;;;;;;;19.60;3.22;;;7.80;99.90;;;;;;4964965;28;20189;-62
2020/12/18 02:19:14;;;;;;;23.20;4.25;;;7.80;99.90;;;;;;4965705;28;20470;-63
2020/12/18 02:21:40;;;;;;;26.55;4.43;;;7.80;99.90;;;;;;4965508;28;20027;-63
2020/12/18 02:24:06;;;;;;;26.02;3.83;;;7.80;99.90;;;;;;4964041;28;20040;-63
2020/12/18 02:26:31;;;;;;;17.02;3.65;;;7.90;99.90;;;;;;4966788;28;20091;-63
2020/12/18 02:28:57;;;;;;;24.50;4.07;;;7.80;99.90;;;;;;4964769;28;20034;-63
2020/12/18 02:31:23;;;;;;;25.27;4.45;;;7.90;99.90;;;;;;4965303;28;20430;-63
2020/12/18 02:33:49;;;;;;;26.05;4.65;;;7.80;99.90;;;;;;4965509;28;20398;-63
2020/12/18 02:36:25;;;;;;;27.08;4.40;;;7.80;99.90;;;;;;4965687;28;20070;-63
2020/12/18 02:38:50;;;;;;;26.65;4.43;;;7.90;99.90;;;;;;4966159;28;20050;-63
2020/12/18 02:41:16;;;;;;;24.27;4.38;;;7.90;99.90;;;;;;4963596;28;20034;-63
2020/12/18 02:43:42;;;;;;;18.83;3.40;;;7.90;99.90;;;;;;4966400;28;20388;-63
2020/12/18 02:46:08;;;;;;;23.67;3.65;;;7.90;99.90;;;;;;4996917;28;20490;-62
2020/12/18 02:48:33;;;;;;;18.13;3.47;;;7.90;99.90;;;;;;4965766;28;20401;-62
2020/12/18 02:50:59;;;;;;;40.30;6.55;;;7.90;99.90;;;;;;4966586;28;20027;-63
2020/12/18 02:53:25;;;;;;;36.05;4.60;;;7.90;99.90;;;;;;4963943;28;20486;-62
2020/12/18 02:55:51;;;;;;;26.10;3.80;;;7.90;99.90;;;;;;4965172;28;20070;-62
2020/12/18 02:58:17;;;;;;;26.42;4.90;;;7.90;99.90;;;;;;4965908;28;20035;-63
2020/12/18 03:00:44;;;;;;;30.48;5.57;;;8.00;99.90;;;;;;4962250;28;20031;-63
2020/12/18 03:03:10;;;;;;;25.70;4.07;;;7.90;99.90;;;;;;4962723;28;20035;-62
2020/12/18 03:05:36;;;;;;;31.50;4.65;;;7.90;99.90;;;;;;4964975;28;20697;-63
2020/12/18 03:08:02;;;;;;;28.90;4.78;;;8.00;99.90;;;;;;4965307;28;20043;-62
2020/12/18 03:10:28;;;;;;;30.67;4.50;;;8.00;99.90;;;;;;4964847;28;20172;-62
2020/12/18 03:12:54;;;;;;;30.42;4.70;;;8.00;99.90;;;;;;4963431;28;20513;-63
2020/12/18 03:15:21;;;;;;;25.48;4.35;;;8.00;99.90;;;;;;4965023;28;20414;-62
2020/12/18 03:17:47;;;;;;;34.13;5.50;;;8.10;99.90;;;;;;4964471;28;20407;-63
2020/12/18 03:20:13;;;;;;;25.58;4.65;;;8.10;99.90;;;;;;4965336;28;20538;-62
2020/12/18 03:22:40;;;;;;;31.80;5.07;;;8.10;99.90;;;;;;4964179;28;20608;-62
2020/12/18 03:25:06;;;;;;;26.60;4.32;;;8.20;99.90;;;;;;4961217;28;20031;-63
2020/12/18 03:27:32;;;;;;;37.58;4.97;;;8.20;99.90;;;;;;4963001;28;20036;-62
2020/12/18 03:29:58;;;;;;;39.55;4.25;;;8.20;99.90;;;;;;4966656;28;20031;-62
2020/12/18 03:32:24;;;;;;;29.10;5.47;;;8.30;99.90;;;;;;4964703;28;20423;-63
2020/12/18 03:34:50;;;;;;;29.83;5.60;;;8.30;99.90;;;;;;4962797;28;20269;-62
2020/12/18 03:37:17;;;;;;;45.35;5.70;;;8.30;99.90;;;;;;4968315;28;20477;-63
2020/12/18 03:39:43;;;;;;;39.80;6.70;;;8.40;99.90;;;;;;4963342;28;20431;-62
2020/12/18 03:42:08;;;;;;;44.70;6.63;;;8.40;99.90;;;;;;4965303;28;20038;-62
2020/12/18 03:44:34;;;;;;;42.80;7.45;;;8.40;99.90;;;;;;4965875;28;20054;-62
2020/12/18 03:47:00;;;;;;;32.92;6.53;;;8.40;99.90;;;;;;4969624;28;20487;-63
2020/12/18 03:49:26;;;;;;;41.17;6.55;;;8.40;99.90;;;;;;4967179;28;20477;-63
2020/12/18 03:51:51;;;;;;;37.28;6.60;;;8.40;99.90;;;;;;4967586;28;20105;-63
2020/12/18 03:54:17;;;;;;;40.20;6.93;;;8.50;99.90;;;;;;4968507;28;20357;-62
2020/12/18 03:56:43;;;;;;;39.58;7.18;;;8.50;99.90;;;;;;4966349;28;20049;-63
2020/12/18 03:59:09;;;;;;;46.38;8.65;;;8.50;99.90;;;;;;4965511;28;20030;-63
2020/12/18 04:01:35;;;;;;;28.92;6.03;;;8.50;99.90;;;;;;4968667;28;20041;-62
2020/12/18 04:04:00;;;;;;;36.90;6.97;;;8.50;99.90;;;;;;4966724;28;20053;-62
2020/12/18 04:06:26;;;;;;;41.80;7.25;;;8.60;99.90;;;;;;4965617;28;20058;-63
2020/12/18 04:08:52;;;;;;;50.78;8.18;;;8.50;99.90;;;;;;4967139;28;20034;-63
2020/12/18 04:11:18;;;;;;;52.08;7.03;;;8.60;99.90;;;;;;4966091;28;20054;-63
2020/12/18 04:13:43;;;;;;;39.95;7.30;;;8.60;99.90;;;;;;4966936;28;20035;-63
2020/12/18 04:16:09;;;;;;;37.65;7.20;;;8.60;99.90;;;;;;4969909;28;20379;-62
2020/12/18 04:18:35;;;;;;;41.05;7.50;;;8.60;99.90;;;;;;4963424;28;20031;-63
2020/12/18 04:21:01;;;;;;;49.55;7.63;;;8.60;99.90;;;;;;4964489;28;20078;-63
2020/12/18 04:23:27;;;;;;;39.42;7.28;;;8.60;99.90;;;;;;4964304;28;20385;-62
2020/12/18 04:25:53;;;;;;;40.58;7.90;;;8.60;99.90;;;;;;4968541;28;20137;-63
2020/12/18 04:28:19;;;;;;;68.88;8.77;;;8.60;99.90;;;;;;4969201;28;20474;-62
2020/12/18 04:30:45;;;;;;;54.72;10.95;;;8.60;99.90;;;;;;4962820;28;20066;-62
2020/12/18 04:33:10;;;;;;;47.38;7.47;;;8.70;99.90;;;;;;4962008;28;20105;-62
2020/12/18 04:35:37;;;;;;;41.75;8.95;;;8.70;99.90;;;;;;4965453;28;20043;-62
2020/12/18 04:38:03;;;;;;;45.28;9.93;;;8.70;99.90;;;;;;4966882;28;20597;-62
2020/12/18 04:40:33;;;;;;;45.38;8.43;;;8.70;99.90;;;;;;4966509;28;20037;-63
2020/12/18 04:42:59;;;;;;;;;;;8.70;99.90;;;;;;4965696;28;20035;-62
2020/12/18 04:45:25;;;;;;;48.35;8.15;;;8.70;99.90;;;;;;4960965;28;19914;-62
2020/12/18 04:47:54;;;;;;;42.75;8.63;;;8.70;99.90;;;;;;4967917;28;20375;-63
2020/12/18 04:50:20;;;;;;;52.23;8.50;;;8.70;99.90;;;;;;4963783;28;20044;-63
2020/12/18 04:52:47;;;;;;;34.72;8.68;;;8.70;99.90;;;;;;4963376;28;20058;-65
2020/12/18 04:55:17;;;;;;;36.97;8.50;;;8.70;99.90;;;;;;4961088;28;20048;-69
2020/12/18 04:57:45;;;;;;;;;;;8.70;99.90;;;;;;4966762;28;20488;-69
2020/12/18 05:00:11;;;;;;;49.78;9.13;;;8.70;99.90;;;;;;4961564;28;19957;-69
2020/12/18 05:02:38;;;;;;;50.65;8.30;;;8.70;99.90;;;;;;4966003;28;20162;-69
2020/12/18 05:05:08;;;;;;;34.95;8.20;;;8.70;99.90;;;;;;4965395;28;20027;-69
2020/12/18 05:07:35;;;;;;;40.17;9.27;;;8.70;99.90;;;;;;4967715;28;20035;-68
2020/12/18 05:10:00;;;;;;;41.08;8.93;;;8.70;99.90;;;;;;4965278;28;20035;-69
2020/12/18 05:12:26;;;;;;;43.67;9.63;;;8.70;99.90;;;;;;4967862;28;20038;-68
2020/12/18 05:14:52;;;;;;;50.08;9.63;;;8.70;99.90;;;;;;4966564;28;20054;-68
2020/12/18 05:17:18;;;;;;;41.38;8.52;;;8.70;99.90;;;;;;4965273;28;20820;-69
2020/12/18 05:19:44;;;;;;;40.15;9.25;;;8.70;99.90;;;;;;4967543;28;20477;-69
2020/12/18 05:22:12;;;;;;;43.00;9.43;;;8.70;99.90;;;;;;4966109;28;20035;-68
2020/12/18 05:24:39;;;;;;;40.70;9.57;;;8.70;99.90;;;;;;4965649;28;20035;-68
2020/12/18 05:27:06;;;;;;;42.70;9.27;;;8.70;99.90;;;;;;4968330;28;20030;-69
2020/12/18 05:29:36;;;;;;;50.92;9.02;;;8.70;99.90;;;;;;4968720;28;20041;-68
2020/12/18 05:32:02;;;;;;;40.45;8.43;;;8.70;99.90;;;;;;4964604;28;20561;-68
2020/12/18 05:34:29;;;;;;;40.15;7.40;;;8.80;99.90;;;;;;4963842;28;20134;-68
2020/12/18 05:36:56;;;;;;;43.65;9.07;;;8.80;99.90;;;;;;4955194;28;20041;-68
2020/12/18 05:39:22;;;;;;;45.58;7.95;;;8.80;99.90;;;;;;4958486;28;20097;-68
2020/12/18 05:41:59;;;;;;;33.80;7.78;;;8.80;99.90;;;;;;4967377;28;20022;-67
2020/12/18 05:44:27;;;;;;;46.20;8.13;;;8.80;99.90;;;;;;4964703;28;20033;-68
2020/12/18 05:47:00;;;;;;;40.65;8.35;;;8.80;99.90;;;;;;4966092;28;20417;-69
2020/12/18 05:49:32;;;;;;;33.63;8.10;;;8.80;99.90;;;;;;4959281;28;20042;-68
2020/12/18 05:51:58;;;;;;;34.10;8.27;;;8.80;99.90;;;;;;4962940;28;20378;-68
2020/12/18 05:54:34;;;;;;;43.33;9.25;;;8.80;99.90;;;;;;4958245;28;20514;-69
2020/12/18 05:57:12;;;;;;;39.72;8.77;;;8.80;99.90;;;;;;4962151;28;20845;-69
2020/12/18 05:59:48;;;;;;;36.75;7.03;;;8.80;99.90;;;;;;4968145;28;20340;-69
2020/12/18 06:02:15;;;;;;;43.25;9.40;;;8.80;99.90;;;;;;4965694;28;20046;-68
2020/12/18 06:04:43;;;;;;;40.05;8.32;;;8.80;99.90;;;;;;4965146;28;20038;-69
2020/12/18 06:07:09;;;;;;;34.30;7.53;;;8.80;99.90;;;;;;4963979;28;20566;-69
2020/12/18 06:09:39;;;;;;;37.80;7.82;;;8.80;99.90;;;;;;4965864;28;20498;-69
2020/12/18 06:12:14;;;;;;;34.75;8.05;;;8.80;99.90;;;;;;4965318;28;20046;-68
2020/12/18 06:14:41;;;;;;;37.30;8.52;;;8.80;99.90;;;;;;4966004;28;20125;-68
2020/12/18 06:17:10;;;;;;;30.67;6.80;;;8.80;99.90;;;;;;4964701;28;20073;-68
2020/12/18 06:19:43;;;;;;;35.67;7.55;;;8.80;99.90;;;;;;4968208;28;20461;-68
2020/12/18 06:22:13;;;;;;;30.45;7.45;;;8.80;99.90;;;;;;4969239;28;20034;-68
2020/12/18 06:24:41;;;;;;;28.35;7.40;;;8.70;99.90;;;;;;4967285;28;20046;-69
2020/12/18 06:27:11;;;;;;;33.00;7.80;;;8.70;99.90;;;;;;4967618;28;20070;-68
2020/12/18 06:29:37;;;;;;;36.65;8.15;;;8.70;99.90;;;;;;4963739;28;20070;-68
2020/12/18 06:32:36;;;;;;;34.50;8.48;;;8.80;99.90;;;;;;4948058;28;20465;-68
2020/12/18 06:35:37;;;;;;;35.67;9.18;;;8.70;99.90;;;;;;4965991;28;20034;-68
2020/12/18 06:38:15;;;;;;;44.05;9.73;;;8.70;99.90;;;;;;4967572;28;20769;-68
2020/12/18 06:40:42;;;;;;;32.92;8.77;;;8.70;99.90;;;;;;4963293;28;20086;-68
2020/12/18 06:43:08;;;;;;;44.53;9.43;;;8.70;99.90;;;;;;4961034;28;20393;-68
2020/12/18 06:45:34;;;;;;;33.45;10.13;;;8.70;99.90;;;;;;4963495;28;20034;-68
2020/12/18 06:48:20;;;;;;;24.50;8.95;;;8.60;99.90;;;;;;4958912;28;20037;-68
2020/12/18 06:50:46;;;;;;;35.15;10.25;;;8.60;99.90;;;;;;4965784;28;20038;-68
2020/12/18 06:53:15;;;;;;;40.10;11.13;;;8.60;99.90;;;;;;4966037;28;20423;-68
2020/12/18 06:55:41;;;;;;;32.63;11.30;;;8.60;99.90;;;;;;4965933;28;20438;-68
2020/12/18 06:58:09;;;;;;;42.25;11.02;;;8.60;99.90;;;;;;4966915;28;20062;-68
2020/12/18 07:00:45;;;;;;;40.75;10.98;;;8.60;99.90;;;;;;4964172;28;20034;-68
2020/12/18 07:03:30;;;;;;;37.20;10.13;;;8.60;99.90;;;;;;4965788;28;20506;-69
2020/12/18 07:06:03;;;;;;;40.95;11.00;;;8.70;99.90;;;;;;4965505;28;20034;-68
2020/12/18 07:08:31;;;;;;;45.92;15.43;;;8.60;99.90;;;;;;4968312;28;20062;-68
2020/12/18 07:11:07;;;;;;;38.03;12.05;;;8.60;99.90;;;;;;4972345;28;20429;-68
2020/12/18 07:13:33;;;;;;;48.90;13.90;;;8.60;99.90;;;;;;5002337;28;20045;-68
2020/12/18 07:16:05;;;;;;;42.97;12.82;;;8.60;99.90;;;;;;4971983;28;20039;-68
2020/12/18 07:18:37;;;;;;;39.45;12.13;;;8.60;99.90;;;;;;4971337;28;20444;-69
2020/12/18 07:21:06;;;;;;;40.65;11.77;;;8.60;99.90;;;;;;4972194;28;20031;-68
2020/12/18 07:23:35;;;;;;;49.90;14.45;;;8.60;99.90;;;;;;4970661;28;20035;-69
2020/12/18 07:26:03;;;;;;;41.17;15.25;;;8.50;99.90;;;;;;4972339;28;20030;-68
2020/12/18 07:28:30;;;;;;;38.08;13.70;;;8.40;99.90;;;;;;4971733;28;20054;-69
2020/12/18 07:30:57;;;;;;;46.55;16.63;;;8.40;99.90;;;;;;4970384;28;20604;-69
2020/12/18 07:33:24;;;;;;;39.60;16.85;;;8.40;99.90;;;;;;4968888;28;20133;-68
2020/12/18 07:35:52;;;;;;;49.17;17.95;;;8.30;99.90;;;;;;4969553;28;20038;-69
2020/12/18 07:38:34;;;;;;;54.72;19.30;;;8.30;99.90;;;;;;4962857;28;20126;-68
2020/12/18 07:41:14;;;;;;;50.60;19.33;;;8.20;99.90;;;;;;4969784;28;20031;-68
2020/12/18 07:43:45;;;;;;;42.63;18.95;;;8.20;99.90;;;;;;4962019;28;20039;-69
2020/12/18 07:46:16;;;;;;;49.85;19.88;;;8.20;99.90;;;;;;4969550;28;20551;-68
2020/12/18 07:48:43;;;;;;;45.03;18.15;;;8.20;99.90;;;;;;5000988;28;20034;-68
2020/12/18 07:51:10;;;;;;;46.15;19.27;;;8.20;99.90;;;;;;4969868;28;20141;-68
2020/12/18 07:53:38;;;;;;;45.25;21.52;;;8.10;99.90;;;;;;4968700;28;20035;-68
2020/12/18 07:56:17;;;;;;;43.85;20.73;;;8.10;99.90;;;;;;4969768;28;20062;-68
2020/12/18 07:58:52;;;;;;;51.55;21.10;;;8.10;99.90;;;;;;4970557;28;20041;-68
2020/12/18 08:01:21;;;;;;;48.35;21.50;;;8.10;99.90;;;;;;4971063;28;20336;-68
2020/12/18 08:03:50;;;;;;;42.63;20.02;;;8.10;99.90;;;;;;4967745;28;20105;-68
2020/12/18 08:06:22;;;;;;;47.72;22.25;;;8.10;99.90;;;;;;4968611;28;20035;-68
2020/12/18 08:08:49;;;;;;;53.05;21.33;;;8.10;99.90;;;;;;4969822;28;20494;-68
2020/12/18 08:11:16;;;;;;;56.97;24.27;;;8.10;99.90;;;;;;4969735;28;20054;-68
2020/12/18 08:13:42;;;;;;;62.03;24.27;;;8.00;99.90;;;;;;4968642;28;20069;-68
2020/12/18 08:16:15;;;;;;;57.88;25.10;;;8.00;99.90;;;;;;4971371;28;20042;-68
2020/12/18 08:18:51;;;;;;;53.17;23.55;;;8.00;99.90;;;;;;4969573;28;20023;-68
2020/12/18 08:21:31;;;;;;;70.72;26.67;;;8.00;99.90;;;;;;4968326;28;20592;-68
2020/12/18 08:24:06;;;;;;;;;;;8.00;99.90;;;;;;4985510;28;20065;-68
2020/12/18 08:26:36;;;;;;;54.40;26.95;;;8.00;99.90;;;;;;4970401;28;20343;-68
2020/12/18 08:29:03;;;;;;;48.40;24.90;;;8.00;99.90;;;;;;4969424;28;20034;-68
2020/12/18 08:31:40;;;;;;;50.03;25.60;;;8.00;99.90;;;;;;4963280;28;20054;-68
2020/12/18 08:34:08;;;;;;;57.90;25.20;;;8.00;99.90;;;;;;4969747;28;20113;-68
2020/12/18 08:36:42;;;;;;;56.08;26.42;;;8.10;99.90;;;;;;4971102;28;20553;-68
2020/12/18 08:39:10;;;;;;;52.00;26.30;;;8.10;99.90;;;;;;4968790;28;20047;-68
2020/12/18 08:41:45;;;;;;;58.72;26.88;;;8.10;99.90;;;;;;4968432;28;20569;-68
2020/12/18 08:44:13;;;;;;;48.13;25.65;;;8.10;99.90;;;;;;4966948;28;20134;-68
2020/12/18 08:46:39;;;;;;;56.60;26.88;;;8.20;99.90;;;;;;4969542;28;20026;-68
2020/12/18 08:49:31;;;;;;;56.28;25.02;;;8.20;99.90;;;;;;4970038;28;20438;-68
2020/12/18 08:52:04;;;;;;;47.05;25.75;;;8.20;99.90;;;;;;4968339;28;20449;-67
2020/12/18 08:54:32;;;;;;;43.53;24.65;;;8.20;99.90;;;;;;4968677;28;20039;-68
2020/12/18 08:57:11;;;;;;;45.95;23.02;;;8.20;99.90;;;;;;4969692;28;20145;-68
2020/12/18 08:59:38;;;;;;;48.58;23.83;;;8.20;99.90;;;;;;4969573;28;20414;-68
2020/12/18 09:02:04;;;;;;;58.10;25.67;;;8.20;99.90;;;;;;4969803;28;20035;-68
2020/12/18 09:04:30;;;;;;;53.80;23.73;;;8.20;99.90;;;;;;4968741;28;20027;-68
2020/12/18 09:06:56;;;;;;;46.00;22.50;;;8.20;99.90;;;;;;4970145;28;20030;-68
2020/12/18 09:09:21;;;;;;;59.63;23.42;;;8.20;99.90;;;;;;4970270;28;20030;-68
2020/12/18 09:11:49;;;;;;;53.33;24.17;;;8.10;99.90;;;;;;4968704;28;20463;-68
2020/12/18 09:14:30;;;;;;;59.53;26.70;;;8.10;99.90;;;;;;4967936;28;20039;-68
2020/12/18 09:16:59;;;;;;;52.78;22.88;;;8.10;99.90;;;;;;4967086;28;20121;-68
2020/12/18 09:19:25;;;;;;;40.15;21.00;;;8.10;99.90;;;;;;4969296;28;20026;-68
2020/12/18 09:22:02;;;;;;;51.88;24.35;;;8.10;99.90;;;;;;4969499;28;20034;-68
2020/12/18 09:24:28;;;;;;;47.75;21.90;;;8.10;99.90;;;;;;4967186;28;20104;-68
2020/12/18 09:27:14;;;;;;;40.22;20.50;;;8.10;99.90;;;;;;4969438;28;20046;-68
2020/12/18 09:29:40;;;;;;;50.50;23.42;;;8.10;99.90;;;;;;4967856;28;20042;-69
2020/12/18 09:32:07;;;;;;;61.53;21.92;;;8.00;99.90;;;;;;4967205;28;20062;-68
2020/12/18 09:34:33;;;;;;;49.33;22.40;;;8.10;99.90;;;;;;4966639;28;20060;-68
2020/12/18 09:37:10;;;;;;;42.15;21.75;;;8.10;99.90;;;;;;4968330;28;20488;-68
2020/12/18 09:39:36;;;;;;;41.47;22.27;;;8.10;99.90;;;;;;4968262;28;20065;-68
2020/12/18 09:42:02;;;;;;;49.22;21.42;;;8.10;99.90;;;;;;4969339;28;20031;-68
2020/12/18 09:44:28;;;;;;;45.35;21.15;;;8.10;99.90;;;;;;4967261;28;20485;-68
2020/12/18 09:46:53;;;;;;;43.67;21.33;;;8.10;99.90;;;;;;4969326;28;20050;-68
2020/12/18 09:49:19;;;;;;;45.85;20.13;;;8.20;99.90;;;;;;4968739;28;20525;-68
2020/12/18 09:51:46;;;;;;;37.95;20.48;;;8.20;99.90;;;;;;4967965;28;20030;-68
2020/12/18 09:54:12;;;;;;;49.25;21.35;;;8.20;99.90;;;;;;4968083;28;20423;-68
2020/12/18 09:56:38;;;;;;;42.92;21.83;;;8.20;99.90;;;;;;4968348;28;20046;-68
2020/12/18 09:59:03;;;;;;;41.25;18.73;;;8.20;99.90;;;;;;4969058;28;20121;-68
2020/12/18 10:01:29;;;;;;;36.10;19.08;;;8.30;99.90;;;;;;4968454;28;20113;-68
2020/12/18 10:03:55;;;;;;;31.50;16.98;;;8.30;99.90;;;;;;4968146;28;20023;-68
2020/12/18 10:06:25;;;;;;;37.45;17.52;;;8.40;99.90;;;;;;4968156;28;20084;-67
2020/12/18 10:08:51;;;;;;;33.30;17.38;;;8.40;99.90;;;;;;4967705;28;20127;-68
2020/12/18 10:11:17;;;;;;;33.97;15.90;;;8.40;99.90;;;;;;4967276;28;20050;-68
2020/12/18 10:13:43;;;;;;;37.90;15.98;;;8.50;99.90;;;;;;4967676;28;20720;-68
2020/12/18 10:16:09;;;;;;;27.30;14.15;;;8.50;99.90;;;;;;4967763;28;20549;-68
2020/12/18 10:18:36;;;;;;;28.73;14.88;;;8.50;99.90;;;;;;4969166;28;20785;-68
2020/12/18 10:21:03;;;;;;;34.70;13.00;;;8.50;99.90;;;;;;4968821;28;20495;-68
2020/12/18 10:23:30;;;;;;;26.40;13.73;;;8.60;99.90;;;;;;4967895;28;20052;-68
2020/12/18 10:25:58;;;;;;;28.52;13.13;;;8.60;99.90;;;;;;4969040;28;20034;-69
2020/12/18 10:28:25;;;;;;;28.90;12.68;;;8.60;99.90;;;;;;4968517;28;20046;-68
2020/12/18 10:30:51;;;;;;;36.67;12.50;;;8.60;99.90;;;;;;4969027;28;20033;-67
2020/12/18 10:33:17;;;;;;;31.17;14.48;;;8.70;99.90;;;;;;4964393;28;20051;-68
2020/12/18 10:35:42;;;;;;;28.83;13.23;;;8.60;99.90;;;;;;4967199;28;20133;-68
2020/12/18 10:38:08;;;;;;;30.23;13.50;;;8.70;99.90;;;;;;4969095;28;20090;-68
2020/12/18 10:40:34;;;;;;;31.02;13.48;;;8.70;99.90;;;;;;4968961;28;20034;-68
2020/12/18 10:43:00;;;;;;;26.33;13.50;;;8.70;99.90;;;;;;4964909;28;20039;-68
2020/12/18 10:45:26;;;;;;;29.67;14.18;;;8.70;99.90;;;;;;4968372;28;20050;-68
2020/12/18 10:47:52;;;;;;;26.38;13.25;;;8.70;99.90;;;;;;4967774;28;20061;-67
2020/12/18 10:50:17;;;;;;;34.67;13.57;;;8.60;99.90;;;;;;4967273;28;20445;-68
2020/12/18 10:52:43;;;;;;;33.40;14.60;;;8.60;99.90;;;;;;4966004;28;21029;-67
2020/12/18 10:55:09;;;;;;;31.33;14.13;;;8.60;99.90;;;;;;4965816;28;20435;-66
2020/12/18 10:57:35;;;;;;;31.92;14.77;;;8.50;99.90;;;;;;4966191;28;20039;-68
2020/12/18 11:00:01;;;;;;;36.85;16.25;;;8.50;99.90;;;;;;4966547;28;20117;-68
2020/12/18 11:02:27;;;;;;;33.75;16.10;;;8.50;99.90;;;;;;4968565;28;20465;-67
2020/12/18 11:04:52;;;;;;;36.97;15.90;;;8.40;99.90;;;;;;4967529;28;20493;-68
2020/12/18 11:07:18;;;;;;;47.72;17.60;;;8.40;99.90;;;;;;4967100;28;20042;-67
2020/12/18 11:09:44;;;;;;;34.75;14.85;;;8.40;99.90;;;;;;4967352;28;20034;-67
2020/12/18 11:12:10;;;;;;;37.25;18.02;;;8.40;99.90;;;;;;4968816;28;20068;-67
2020/12/18 11:14:38;;;;;;;31.38;15.32;;;8.40;99.90;;;;;;4961767;28;20403;-67
2020/12/18 11:17:04;;;;;;;45.03;16.88;;;8.30;99.90;;;;;;4965279;28;20038;-67
2020/12/18 11:19:30;;;;;;;36.47;15.43;;;8.30;99.90;;;;;;4966435;28;20470;-67
2020/12/18 11:21:56;;;;;;;50.17;16.80;;;8.40;99.90;;;;;;4964879;28;20027;-68
2020/12/18 11:24:21;;;;;;;34.47;15.48;;;8.30;99.90;;;;;;4960057;28;20118;-68
2020/12/18 11:26:52;;;;;;;35.60;15.70;;;8.30;99.90;;;;;;4962580;28;20035;-68
2020/12/18 11:29:19;;;;;;;40.53;17.55;;;8.30;99.90;;;;;;4964029;28;20023;-68
2020/12/18 11:31:47;;;;;;;40.28;18.63;;;8.30;99.90;;;;;;4964791;28;20416;-67
2020/12/18 11:34:12;;;;;;;39.95;16.80;;;8.20;99.90;;;;;;4966699;28;20054;-68
2020/12/18 11:36:38;;;;;;;45.38;18.00;;;8.20;99.90;;;;;;4960743;28;22759;-67
2020/12/18 11:39:05;;;;;;;46.08;19.35;;;8.20;99.90;;;;;;4966427;28;20066;-67
2020/12/18 11:41:32;;;;;;;44.60;16.48;;;8.30;99.90;;;;;;4967756;28;20042;-67
2020/12/18 11:43:58;;;;;;;41.50;17.92;;;8.30;99.90;;;;;;4964257;28;20030;-67
2020/12/18 11:46:24;;;;;;;42.67;17.38;;;8.30;99.90;;;;;;4964220;28;20046;-68
2020/12/18 11:48:50;;;;;;;46.45;18.98;;;8.30;99.90;;;;;;4966179;28;20026;-68
2020/12/18 11:51:16;;;;;;;56.47;21.85;;;8.30;99.90;;;;;;4965472;28;20462;-68
2020/12/18 11:53:42;;;;;;;37.25;18.60;;;8.20;99.90;;;;;;4966568;28;20054;-68
2020/12/18 11:56:08;;;;;;;49.05;19.23;;;8.30;99.90;;;;;;4968719;28;20078;-67
2020/12/18 11:58:34;;;;;;;42.72;16.95;;;8.30;99.90;;;;;;4969569;28;20047;-68
2020/12/18 12:00:59;;;;;;;39.42;17.42;;;8.30;99.90;;;;;;4971497;28;20531;-68
2020/12/18 12:03:26;;;;;;;45.65;17.88;;;8.30;99.90;;;;;;4968270;28;20514;-67
2020/12/18 12:05:55;;;;;;;47.75;18.77;;;8.30;99.90;;;;;;4971595;28;20026;-68
2020/12/18 12:08:21;;;;;;;44.55;19.33;;;8.20;99.90;;;;;;4971352;28;20026;-67
2020/12/18 12:10:46;;;;;;;45.55;19.30;;;8.20;99.90;;;;;;4971896;28;20137;-67
2020/12/18 12:13:12;;;;;;;44.17;20.02;;;8.20;99.90;;;;;;4969751;28;20159;-68
2020/12/18 12:15:38;;;;;;;44.28;19.27;;;8.30;99.90;;;;;;4967648;28;20054;-68
2020/12/18 12:18:04;;;;;;;51.22;20.17;;;8.30;99.90;;;;;;4968772;28;20505;-67
2020/12/18 12:20:30;;;;;;;48.28;20.23;;;8.20;99.90;;;;;;4970699;28;20033;-67
2020/12/18 12:22:56;;;;;;;49.35;19.50;;;8.20;99.90;;;;;;4968785;28;20564;-67
2020/12/18 12:25:22;;;;;;;49.55;18.58;;;8.20;99.90;;;;;;4966062;28;20042;-68
2020/12/18 12:27:47;;;;;;;57.00;20.38;;;8.20;99.90;;;;;;4964594;28;20038;-68
2020/12/18 12:30:13;;;;;;;54.72;21.40;;;8.20;99.90;;;;;;4969566;28;20030;-68
2020/12/18 12:32:39;;;;;;;52.53;20.67;;;8.20;99.90;;;;;;4968686;28;20446;-68
2020/12/18 12:35:05;;;;;;;48.42;20.63;;;8.20;99.90;;;;;;4964522;28;20039;-68
2020/12/18 12:37:31;;;;;;;47.10;19.83;;;8.20;99.90;;;;;;4970738;28;20082;-68
2020/12/18 12:39:57;;;;;;;44.70;20.15;;;8.20;99.90;;;;;;4971027;28;20141;-68
2020/12/18 12:42:23;;;;;;;43.75;18.55;;;8.20;99.90;;;;;;4969608;28;20083;-69
2020/12/18 12:44:49;;;;;;;50.42;18.92;;;8.20;99.90;;;;;;4970179;28;20788;-68
2020/12/18 12:47:15;;;;;;;49.90;19.10;;;8.20;99.90;;;;;;4970605;28;20026;-68